Hauptseite
METAR-TAF:

METAR-TAF

Flughäfen :

RAF Leeming

Leeming, England

Breite: 54-18N, Länge: 001-32W, Höhe: 40 m

Beobachtung

Neuester Wetterbericht von vor 46 Minuten, um 18:50 UTC
Wind 12 kt aus West/Südwest
Temperatur 14°C
Luftfeuchtigkeit 51%
Luftdruck 1016 hPa
Sichtweite 10 km oder mehr

METAR: EGXE 221850Z AUTO 25012KT 9999 NCD 14/04 Q1016

Zeit: 20:36 (19:36 UTC)

Prognose

Neuester Wetterbericht von vor 5 Stunden und 5 Minuten, um 14:31 UTC
Gültige Prognose vom 22 um 14 UTC bis 22 um 18 UTC
Wind 15 kt aus West
Sichtweite 10 km oder mehr
keine Wolken unter 1500 m und keine Kumulonimbus oder Gewitterwolken
Wahrscheinlichkeit 30% :
Zeitweise
vom 22 um 14 UTC bis 22 um 16 UTC
Wind 15 kt aus West, Böen bis zu 25 kt

TAF: EGXE 221431Z 2214/2218 26015KT CAVOK PROB30 TEMPO 2214/2216 26015G25KT

Wetterbeobachtungen und Prognosen von mehr als 4000 Flughäfen (METAR und TAF Bericht).

Die verfügbaren Stationen werden durch gelbe und rote Markierungen auf der Karte dargestellt.

Führen Sie die Maus auf sie, um den Namen der Station zu sehen.

Darauf klicken, um die Beobachtung von Wetterbeobachtungen und Prognosen zu sehen.

Um die Karte zu ändern : klicken Sie auf den grünen Tasten mit einem schwarzen Kreuz Zum Vergrößern, auf den grünen Button mit einem Gedankenstrich zu verkleinern, oder auf die grünen Pfeile für benachbarte Karten.


METAR-TAF: